createdAt,value
2017-05-04T00:01:06.099Z,16.94
2017-05-04T00:03:35.210Z,18.84
2017-05-04T00:06:03.528Z,17.14
2017-05-04T00:08:31.855Z,18.42
2017-05-04T00:11:00.209Z,18.38
2017-05-04T00:13:29.300Z,17.96
2017-05-04T00:15:58.568Z,19.84
2017-05-04T00:18:26.893Z,17.78
2017-05-04T00:20:56.442Z,18.04
2017-05-04T00:23:24.898Z,19.56
2017-05-04T00:25:53.198Z,18.16
2017-05-04T00:28:23.049Z,18.68
2017-05-04T00:30:52.120Z,19.88
2017-05-04T00:33:20.429Z,19.02
2017-05-04T00:35:48.787Z,18.98
2017-05-04T00:38:17.859Z,19.32
2017-05-04T00:40:46.213Z,18.62
2017-05-04T00:43:14.578Z,20.48
2017-05-04T00:45:42.893Z,20.44
2017-05-04T00:48:11.197Z,19.00
2017-05-04T00:50:40.321Z,18.16
2017-05-04T00:53:08.630Z,18.92
2017-05-04T00:55:36.938Z,22.14
2017-05-04T00:58:06.049Z,18.12
2017-05-04T01:00:35.116Z,21.64
2017-05-04T01:03:03.426Z,20.12
2017-05-04T01:05:31.783Z,21.44
2017-05-04T01:08:00.860Z,18.58
2017-05-04T01:10:29.165Z,22.92
2017-05-04T01:12:57.680Z,20.12
2017-05-04T01:15:26.053Z,18.54
2017-05-04T01:17:54.385Z,21.28
2017-05-04T01:20:22.727Z,22.08
2017-05-04T01:22:51.036Z,20.40
2017-05-04T01:25:19.336Z,22.94
2017-05-04T01:27:48.471Z,21.44
2017-05-04T01:30:16.812Z,22.94
2017-05-04T01:32:45.889Z,20.72
2017-05-04T01:35:14.196Z,20.70
2017-05-04T01:37:42.545Z,22.36
2017-05-04T01:40:10.869Z,22.22
2017-05-04T01:42:39.216Z,20.18
2017-05-04T01:45:07.578Z,18.68
2017-05-04T01:47:35.895Z,23.76
2017-05-04T01:50:04.236Z,22.22
2017-05-04T01:52:32.597Z,23.44
2017-05-04T01:55:01.666Z,23.20
2017-05-04T01:57:30.807Z,21.50
2017-05-04T01:59:59.109Z,21.46
2017-05-04T02:02:27.416Z,20.98
2017-05-04T02:04:56.166Z,21.90
2017-05-04T02:07:24.469Z,23.60
2017-05-04T02:09:52.777Z,20.30
2017-05-04T02:12:21.902Z,23.08
2017-05-04T02:14:50.218Z,20.70
2017-05-04T02:17:18.519Z,22.26
2017-05-04T02:19:47.632Z,21.24
2017-05-04T02:22:15.934Z,19.04
2017-05-04T02:24:45.016Z,20.72
2017-05-04T02:27:13.647Z,20.28
2017-05-04T02:29:41.954Z,20.04
2017-05-04T02:32:11.028Z,22.16
2017-05-04T02:34:39.369Z,20.80
2017-05-04T02:37:07.673Z,23.80
2017-05-04T02:39:35.970Z,21.90
2017-05-04T02:42:05.121Z,23.20
2017-05-04T02:44:33.437Z,22.60
2017-05-04T02:47:01.740Z,23.16
2017-05-04T02:49:30.871Z,22.58
2017-05-04T02:51:59.194Z,23.30
2017-05-04T02:54:27.493Z,21.64
2017-05-04T02:56:55.988Z,22.94
2017-05-04T02:59:24.287Z,21.40
2017-05-04T03:01:53.359Z,22.90
2017-05-04T03:04:21.714Z,21.68
2017-05-04T03:06:50.796Z,22.10
2017-05-04T03:09:19.100Z,23.98
2017-05-04T03:11:48.205Z,21.58
2017-05-04T03:14:16.524Z,23.58
2017-05-04T03:16:44.840Z,22.70
2017-05-04T03:19:14.075Z,25.10
2017-05-04T03:21:42.385Z,23.32
2017-05-04T03:24:12.253Z,22.08
2017-05-04T03:26:40.573Z,25.52
2017-05-04T03:29:08.893Z,22.28
2017-05-04T03:31:38.002Z,25.26
2017-05-04T03:34:07.081Z,22.84
2017-05-04T03:36:36.199Z,21.94
2017-05-04T03:39:05.274Z,23.84
2017-05-04T03:41:34.441Z,23.08
2017-05-04T03:44:02.753Z,21.84
2017-05-04T03:46:31.823Z,23.90
2017-05-04T03:49:00.152Z,24.20
2017-05-04T03:51:28.459Z,23.22
2017-05-04T03:53:56.762Z,24.06
2017-05-04T03:56:25.109Z,22.80
2017-05-04T03:58:53.414Z,26.14
2017-05-04T04:01:22.486Z,24.84
2017-05-04T04:03:50.834Z,21.16
2017-05-04T04:06:19.154Z,24.06
2017-05-04T04:08:48.259Z,24.00
2017-05-04T04:11:17.390Z,24.06
2017-05-04T04:13:45.722Z,24.98
2017-05-04T04:16:14.101Z,23.36
2017-05-04T04:18:42.493Z,22.96
2017-05-04T04:21:10.808Z,27.38
2017-05-04T04:23:39.151Z,24.10
2017-05-04T04:26:07.481Z,25.66
2017-05-04T04:28:35.799Z,25.10
2017-05-04T04:31:04.147Z,25.34
2017-05-04T04:33:33.243Z,23.04
2017-05-04T04:36:02.375Z,23.00
2017-05-04T04:38:30.695Z,25.08
2017-05-04T04:40:59.005Z,23.74
2017-05-04T04:43:27.354Z,23.16
2017-05-04T04:45:57.166Z,25.16
2017-05-04T04:48:26.297Z,22.56
2017-05-04T04:50:55.369Z,24.48
2017-05-04T04:53:23.679Z,24.90
2017-05-04T04:55:52.049Z,23.84
2017-05-04T04:58:21.123Z,25.24
2017-05-04T05:00:49.470Z,21.80
2017-05-04T05:03:17.821Z,23.28
2017-05-04T05:05:46.125Z,23.06
2017-05-04T05:08:14.432Z,25.20
2017-05-04T05:10:42.780Z,23.56
2017-05-04T05:13:11.089Z,21.64
2017-05-04T05:15:39.393Z,23.82
2017-05-04T05:18:07.797Z,26.32
2017-05-04T05:20:36.107Z,23.48
2017-05-04T05:23:04.457Z,22.58
2017-05-04T05:25:32.818Z,25.96
2017-05-04T05:28:01.133Z,26.02
2017-05-04T05:30:30.995Z,22.00
2017-05-04T05:33:00.092Z,22.40
2017-05-04T05:35:28.401Z,24.24
2017-05-04T05:37:56.759Z,25.68
2017-05-04T05:40:25.068Z,25.76
2017-05-04T05:42:53.370Z,23.28
2017-05-04T05:45:22.489Z,25.36
2017-05-04T05:47:51.568Z,24.96
2017-05-04T05:50:20.692Z,23.88
2017-05-04T05:52:48.998Z,22.28
2017-05-04T05:55:17.306Z,25.38
2017-05-04T05:57:45.673Z,26.62
2017-05-04T06:00:14.757Z,25.36
2017-05-04T06:02:43.064Z,23.30
2017-05-04T06:05:11.413Z,24.12
2017-05-04T06:07:39.719Z,21.62
2017-05-04T06:10:08.025Z,26.06
2017-05-04T06:12:36.389Z,25.08
2017-05-04T06:15:05.470Z,25.30
2017-05-04T06:17:33.776Z,23.02
2017-05-04T06:20:02.129Z,23.12
2017-05-04T06:22:30.437Z,23.54
2017-05-04T06:24:59.521Z,23.32
2017-05-04T06:27:28.642Z,25.78
2017-05-04T06:29:56.973Z,23.10
2017-05-04T06:32:25.273Z,21.66
2017-05-04T06:34:54.398Z,23.68
2017-05-04T06:37:22.715Z,22.20
2017-05-04T06:39:51.049Z,26.08
2017-05-04T06:42:19.388Z,21.84
2017-05-04T06:44:48.470Z,23.80
2017-05-04T06:47:16.779Z,22.66
2017-05-04T06:49:45.890Z,20.94
2017-05-04T06:52:14.199Z,20.40
2017-05-04T06:54:43.273Z,22.30
2017-05-04T06:57:12.062Z,20.62
2017-05-04T06:59:40.367Z,23.28
2017-05-04T07:02:08.701Z,21.54
2017-05-04T07:04:37.061Z,23.36
2017-05-04T07:07:06.134Z,24.86
2017-05-04T07:09:34.441Z,19.24
2017-05-04T07:12:03.563Z,21.32
2017-05-04T07:14:31.878Z,23.20
2017-05-04T07:17:00.186Z,24.24
2017-05-04T07:19:29.305Z,25.88
2017-05-04T07:21:57.634Z,24.78
2017-05-04T07:24:25.938Z,25.26
2017-05-04T07:26:55.073Z,21.94
2017-05-04T07:29:23.381Z,27.56
2017-05-04T07:31:51.683Z,22.86
2017-05-04T07:34:20.803Z,21.52
2017-05-04T07:36:49.117Z,22.40
2017-05-04T07:39:17.474Z,24.62
2017-05-04T07:41:45.823Z,23.02
2017-05-04T07:44:14.906Z,26.62
2017-05-04T07:46:44.041Z,25.80
2017-05-04T07:49:12.347Z,23.18
2017-05-04T07:51:40.664Z,21.94
2017-05-04T07:54:09.781Z,22.46
2017-05-04T07:56:38.094Z,23.00
2017-05-04T07:59:06.391Z,25.16
2017-05-04T08:01:34.753Z,21.12
2017-05-04T08:04:03.836Z,22.20
2017-05-04T08:06:32.145Z,21.88
2017-05-04T08:09:00.629Z,22.16
2017-05-04T08:11:28.933Z,22.94
2017-05-04T08:13:58.011Z,21.78
2017-05-04T08:16:26.367Z,23.86
2017-05-04T08:18:54.674Z,22.06
2017-05-04T08:21:23.749Z,21.06
2017-05-04T08:23:52.867Z,20.76
2017-05-04T08:26:21.933Z,23.38
2017-05-04T08:28:50.249Z,20.98
2017-05-04T08:31:19.359Z,20.92
2017-05-04T08:33:48.445Z,21.88
2017-05-04T08:36:17.553Z,21.52
2017-05-04T08:38:45.872Z,21.58
2017-05-04T08:41:14.939Z,21.28
2017-05-04T08:43:44.057Z,20.36
2017-05-04T08:46:12.367Z,20.30
2017-05-04T08:48:41.447Z,19.52
2017-05-04T08:51:09.808Z,22.02
2017-05-04T08:53:38.113Z,21.30
2017-05-04T08:56:06.416Z,20.70
2017-05-04T08:58:35.522Z,20.60
2017-05-04T09:01:03.832Z,21.04
2017-05-04T09:03:32.161Z,21.06
2017-05-04T09:06:01.277Z,20.62
2017-05-04T09:08:29.583Z,20.80
2017-05-04T09:10:57.889Z,20.58
2017-05-04T09:13:26.226Z,21.94
2017-05-04T09:15:54.555Z,19.06
2017-05-04T09:18:23.629Z,19.06
2017-05-04T09:20:52.760Z,19.44
2017-05-04T09:23:21.837Z,18.70
2017-05-04T09:25:50.146Z,18.22
2017-05-04T09:28:18.501Z,19.22
2017-05-04T09:30:47.578Z,18.12
2017-05-04T09:33:15.884Z,21.20
2017-05-04T09:35:44.229Z,20.80
2017-05-04T09:38:12.537Z,18.88
2017-05-04T09:40:40.852Z,21.70
2017-05-04T09:43:09.198Z,17.84
2017-05-04T09:45:37.506Z,18.22
2017-05-04T09:48:06.597Z,20.72
2017-05-04T09:50:34.951Z,21.64
2017-05-04T09:53:03.257Z,20.24
2017-05-04T09:55:31.575Z,17.14
2017-05-04T09:58:00.701Z,20.40
2017-05-04T10:00:29.777Z,19.10
2017-05-04T10:02:58.204Z,18.78
2017-05-04T10:05:26.582Z,18.58
2017-05-04T10:07:54.889Z,20.84
2017-05-04T10:10:23.207Z,20.38
2017-05-04T10:12:52.321Z,19.96
2017-05-04T10:15:20.626Z,21.12
2017-05-04T10:17:48.969Z,18.78
2017-05-04T10:20:17.325Z,17.02
2017-05-04T10:22:45.637Z,17.98
2017-05-04T10:25:14.725Z,18.84
2017-05-04T10:27:43.071Z,18.00
2017-05-04T10:30:11.390Z,18.08
2017-05-04T10:32:39.694Z,15.78
2017-05-04T10:35:08.037Z,16.38
2017-05-04T10:37:36.361Z,16.06
2017-05-04T10:40:04.678Z,16.04
2017-05-04T10:42:33.806Z,16.42
2017-05-04T10:45:02.105Z,16.92
2017-05-04T10:47:30.426Z,18.66
2017-05-04T10:49:59.547Z,17.82
2017-05-04T10:52:27.871Z,16.08
2017-05-04T10:54:56.189Z,16.16
2017-05-04T10:57:24.545Z,15.18
2017-05-04T10:59:52.876Z,12.28
2017-05-04T11:02:21.187Z,15.90
2017-05-04T11:04:49.544Z,17.94
2017-05-04T11:07:17.853Z,15.32
2017-05-04T11:09:46.168Z,18.36
2017-05-04T11:12:14.509Z,20.34
2017-05-04T11:14:42.827Z,17.12
2017-05-04T11:17:11.135Z,14.76
2017-05-04T11:19:39.477Z,20.94
2017-05-04T11:22:07.787Z,22.00
2017-05-04T11:24:36.101Z,21.28
2017-05-04T11:27:04.449Z,21.56
2017-05-04T11:29:32.750Z,24.96
2017-05-04T11:32:01.055Z,24.56
2017-05-04T11:34:30.175Z,23.16
2017-05-04T11:36:58.498Z,21.96
2017-05-04T11:39:26.810Z,21.66
2017-05-04T11:41:55.160Z,23.72
2017-05-04T11:44:23.490Z,23.60
2017-05-04T11:46:51.795Z,21.82
2017-05-04T11:49:21.658Z,20.52
2017-05-04T11:51:49.976Z,21.36
2017-05-04T11:54:18.294Z,20.30
2017-05-04T11:56:47.426Z,19.76
2017-05-04T11:59:15.928Z,17.34
2017-05-04T12:01:44.262Z,18.50
2017-05-04T12:04:13.389Z,19.98
2017-05-04T12:06:41.737Z,20.66
2017-05-04T12:09:10.820Z,19.90
2017-05-04T12:11:39.176Z,20.84
2017-05-04T12:14:07.495Z,19.94
2017-05-04T12:16:35.815Z,19.70
2017-05-04T12:19:04.157Z,17.72
2017-05-04T12:21:32.532Z,19.34
2017-05-04T12:24:00.866Z,19.10
2017-05-04T12:26:29.227Z,16.64
2017-05-04T12:28:57.582Z,17.16
2017-05-04T12:31:25.915Z,14.76
2017-05-04T12:33:54.278Z,17.04
2017-05-04T12:36:22.580Z,15.18
2017-05-04T12:38:51.669Z,17.94
2017-05-04T12:41:20.069Z,19.46
2017-05-04T12:43:49.149Z,19.64
2017-05-04T12:46:17.458Z,17.68
2017-05-04T12:48:45.807Z,14.50
2017-05-04T12:51:14.115Z,20.08
2017-05-04T12:53:42.429Z,17.34
2017-05-04T12:56:10.787Z,19.68
2017-05-04T12:58:39.099Z,18.46
2017-05-04T13:01:07.438Z,20.96
2017-05-04T13:03:35.785Z,21.02
2017-05-04T13:06:04.870Z,17.82
2017-05-04T13:08:33.979Z,18.10
2017-05-04T13:11:03.057Z,17.88
2017-05-04T13:13:31.397Z,19.82
2017-05-04T13:15:59.766Z,19.52
2017-05-04T13:18:28.111Z,20.12
2017-05-04T13:20:57.192Z,16.86
2017-05-04T13:23:25.589Z,19.54
2017-05-04T13:25:54.670Z,16.02
2017-05-04T13:28:23.784Z,20.08
2017-05-04T13:30:52.858Z,17.06
2017-05-04T13:33:21.174Z,11.42
2017-05-04T13:35:49.518Z,9.38
2017-05-04T13:38:17.837Z,10.62
2017-05-04T13:40:46.187Z,10.28
2017-05-04T13:43:15.312Z,10.72
2017-05-04T13:45:43.622Z,13.04
2017-05-04T13:48:11.925Z,13.46
2017-05-04T13:50:41.050Z,13.80
2017-05-04T13:53:09.362Z,13.60
2017-05-04T13:55:37.667Z,11.24
2017-05-04T13:58:06.041Z,15.44
2017-05-04T14:00:34.353Z,12.72
2017-05-04T14:03:03.530Z,17.94
2017-05-04T14:05:32.645Z,18.24
2017-05-04T14:08:01.740Z,19.78
2017-05-04T14:10:30.859Z,19.56
2017-05-04T14:12:59.205Z,22.62
2017-05-04T14:15:28.305Z,20.64
2017-05-04T14:17:57.430Z,20.00
2017-05-04T14:20:25.744Z,19.58
2017-05-04T14:22:54.063Z,20.92
2017-05-04T14:25:23.189Z,21.92
2017-05-04T14:27:51.494Z,19.20
2017-05-04T14:30:20.569Z,15.74
2017-05-04T14:32:48.925Z,12.20
2017-05-04T14:35:17.229Z,12.04
2017-05-04T14:37:45.537Z,8.26
2017-05-04T14:40:13.883Z,9.84
2017-05-04T14:42:42.202Z,8.90
2017-05-04T14:45:11.278Z,7.58
2017-05-04T14:47:39.625Z,7.14
2017-05-04T14:50:07.942Z,7.68
2017-05-04T14:52:36.246Z,5.52
2017-05-04T14:55:05.437Z,4.98
2017-05-04T14:57:34.626Z,4.30
2017-05-04T15:00:02.939Z,4.44
2017-05-04T15:02:32.053Z,4.66
2017-05-04T15:05:00.369Z,4.96
2017-05-04T15:07:28.684Z,3.92
2017-05-04T15:09:57.820Z,5.40
2017-05-04T15:12:26.124Z,5.52
2017-05-04T15:14:54.439Z,6.28
2017-05-04T15:17:22.801Z,6.30
2017-05-04T15:19:51.884Z,6.80
2017-05-04T15:22:21.027Z,8.32
2017-05-04T15:24:49.339Z,11.12
2017-05-04T15:27:17.656Z,11.28
2017-05-04T15:29:46.067Z,15.06
2017-05-04T15:32:14.406Z,17.72
2017-05-04T15:34:42.761Z,20.22
2017-05-04T15:37:11.117Z,22.16
2017-05-04T15:39:40.193Z,21.20
2017-05-04T15:42:08.505Z,20.82
2017-05-04T15:44:36.863Z,20.64
2017-05-04T15:47:06.082Z,18.86
2017-05-04T15:49:34.385Z,16.76
2017-05-04T15:52:02.735Z,16.66
2017-05-04T15:54:31.896Z,15.80
2017-05-04T15:57:00.273Z,16.88
2017-05-04T15:59:28.676Z,15.70
2017-05-04T16:01:57.007Z,17.54
2017-05-04T16:04:25.314Z,15.62
2017-05-04T16:06:55.191Z,16.96
2017-05-04T16:09:23.507Z,16.32
2017-05-04T16:11:51.809Z,15.14
2017-05-04T16:14:20.151Z,31.38
2017-05-04T16:16:48.452Z,18.86
2017-05-04T16:19:16.758Z,23.48
2017-05-04T16:21:45.117Z,24.40
2017-05-04T16:24:13.513Z,17.96
2017-05-04T16:26:41.814Z,18.74
2017-05-04T16:29:10.990Z,18.62
2017-05-04T16:31:39.295Z,15.54
2017-05-04T16:34:08.399Z,16.64
2017-05-04T16:36:37.509Z,16.40
2017-05-04T16:39:05.825Z,16.82
2017-05-04T16:41:34.135Z,16.02
2017-05-04T16:44:03.251Z,17.66
2017-05-04T16:46:31.562Z,15.88
2017-05-04T16:48:59.869Z,15.46
2017-05-04T16:51:28.973Z,15.62
2017-05-04T16:53:57.277Z,15.64
2017-05-04T16:56:26.346Z,14.20
2017-05-04T16:58:54.696Z,14.94
2017-05-04T17:01:23.769Z,13.90
2017-05-04T17:03:52.070Z,15.26
2017-05-04T17:06:20.429Z,16.96
2017-05-04T17:08:49.497Z,15.84
2017-05-04T17:11:17.804Z,15.00
2017-05-04T17:13:46.166Z,14.32
2017-05-04T17:16:14.490Z,14.56
2017-05-04T17:18:42.799Z,11.68
2017-05-04T17:21:11.909Z,13.34
2017-05-04T17:23:40.226Z,12.32
2017-05-04T17:26:08.529Z,15.18
2017-05-04T17:28:37.135Z,10.26
2017-05-04T17:31:06.323Z,9.82
2017-05-04T17:33:35.437Z,10.22
2017-05-04T17:36:03.733Z,9.94
2017-05-04T17:38:32.034Z,9.04
2017-05-04T17:41:00.383Z,7.98
2017-05-04T17:43:28.692Z,7.62
2017-05-04T17:45:57.001Z,8.92
2017-05-04T17:48:25.337Z,8.60
2017-05-04T17:50:53.638Z,7.90
2017-05-04T17:53:21.938Z,7.66
2017-05-04T17:55:50.300Z,10.14
2017-05-04T17:58:18.605Z,8.70
2017-05-04T18:00:47.681Z,10.22
2017-05-04T18:03:16.029Z,11.92
2017-05-04T18:05:44.326Z,9.00
2017-05-04T18:08:12.626Z,8.82
2017-05-04T18:10:41.759Z,8.58
2017-05-04T18:13:10.053Z,9.74
2017-05-04T18:15:38.353Z,10.80
2017-05-04T18:18:06.691Z,8.48
2017-05-04T18:20:34.986Z,8.38
2017-05-04T18:23:03.290Z,8.24
2017-05-04T18:25:32.399Z,8.80
2017-05-04T18:28:01.476Z,8.76
2017-05-04T18:30:29.789Z,9.22
2017-05-04T18:32:58.903Z,8.82
2017-05-04T18:35:27.205Z,9.38
2017-05-04T18:37:56.274Z,8.50
2017-05-04T18:40:24.634Z,10.08
2017-05-04T18:42:52.958Z,8.92
2017-05-04T18:45:22.033Z,9.26
2017-05-04T18:47:50.382Z,9.60
2017-05-04T18:50:19.461Z,8.78
2017-05-04T18:52:47.782Z,9.14
2017-05-04T18:55:16.141Z,9.56
2017-05-04T18:57:45.221Z,9.80
2017-05-04T19:00:13.537Z,10.46
2017-05-04T19:02:43.392Z,8.72
2017-05-04T19:05:11.722Z,10.30
2017-05-04T19:07:40.025Z,10.14
2017-05-04T19:10:09.153Z,11.04
2017-05-04T19:12:37.457Z,10.46
2017-05-04T19:15:06.283Z,11.02
2017-05-04T19:17:35.410Z,10.78
2017-05-04T19:20:03.722Z,11.44
2017-05-04T19:22:32.066Z,10.64
2017-05-04T19:25:00.415Z,9.88
2017-05-04T19:27:29.540Z,12.64
2017-05-04T19:29:57.862Z,11.26
2017-05-04T19:32:26.361Z,11.16
2017-05-04T19:34:54.742Z,10.58
2017-05-04T19:37:23.053Z,11.22
2017-05-04T19:39:51.374Z,12.46
2017-05-04T19:42:19.826Z,11.80
2017-05-04T19:44:48.136Z,13.08
2017-05-04T19:47:16.453Z,12.38
2017-05-04T19:49:45.794Z,12.24
2017-05-04T19:52:14.126Z,10.82
2017-05-04T19:54:43.253Z,13.46
2017-05-04T19:57:13.239Z,12.32
2017-05-04T19:59:42.314Z,13.04
2017-05-04T20:02:10.621Z,13.88
2017-05-04T20:04:38.986Z,14.10
2017-05-04T20:07:07.321Z,12.46
2017-05-04T20:09:36.479Z,12.70
2017-05-04T20:12:04.855Z,12.58
2017-05-04T20:14:33.204Z,11.02
2017-05-04T20:17:01.512Z,11.94
2017-05-04T20:19:29.860Z,13.56
2017-05-04T20:21:58.178Z,13.60
2017-05-04T20:24:26.582Z,14.98
2017-05-04T20:26:54.945Z,12.86
2017-05-04T20:29:23.274Z,12.84
2017-05-04T20:31:51.600Z,13.08
2017-05-04T20:34:19.953Z,12.94
2017-05-04T20:36:49.085Z,12.18
2017-05-04T20:39:18.317Z,12.00
2017-05-04T20:41:46.637Z,12.24
2017-05-04T20:44:15.763Z,12.26
2017-05-04T20:46:44.121Z,11.98
2017-05-04T20:49:12.437Z,11.44
2017-05-04T20:51:41.549Z,11.36
2017-05-04T20:54:10.046Z,11.66
2017-05-04T20:56:38.358Z,10.92
2017-05-04T20:59:06.668Z,12.90
2017-05-04T21:01:35.036Z,11.40
2017-05-04T21:04:03.344Z,11.90
2017-05-04T21:06:31.674Z,10.46
2017-05-04T21:09:00.033Z,10.46
2017-05-04T21:11:29.112Z,10.40
2017-05-04T21:13:57.426Z,10.24
2017-05-04T21:16:25.771Z,10.66
2017-05-04T21:18:54.841Z,10.62
2017-05-04T21:21:23.153Z,10.08
2017-05-04T21:23:51.501Z,10.48
2017-05-04T21:26:20.574Z,11.34
2017-05-04T21:28:48.885Z,11.22
2017-05-04T21:31:17.237Z,11.22
2017-05-04T21:33:45.547Z,9.74
2017-05-04T21:36:14.631Z,10.16
2017-05-04T21:38:43.042Z,10.26
2017-05-04T21:41:11.348Z,10.30
2017-05-04T21:43:39.652Z,9.80
2017-05-04T21:46:07.992Z,9.82
2017-05-04T21:48:36.294Z,12.44
2017-05-04T21:51:05.350Z,10.30
2017-05-04T21:53:35.214Z,8.86
2017-05-04T21:56:03.514Z,10.12
2017-05-04T21:58:31.809Z,9.94
2017-05-04T22:01:00.188Z,11.40
2017-05-04T22:03:28.488Z,10.26
2017-05-04T22:05:56.789Z,9.46
2017-05-04T22:08:25.126Z,10.66
2017-05-04T22:10:53.427Z,9.40
2017-05-04T22:13:21.728Z,9.42
2017-05-04T22:15:50.069Z,10.06
2017-05-04T22:18:18.375Z,9.62
2017-05-04T22:20:46.681Z,10.40
2017-05-04T22:23:15.040Z,8.70
2017-05-04T22:25:43.352Z,9.54
2017-05-04T22:28:13.189Z,8.54
2017-05-04T22:30:41.499Z,10.32
2017-05-04T22:33:09.813Z,9.78
2017-05-04T22:35:38.915Z,8.42
2017-05-04T22:38:07.977Z,9.56
2017-05-04T22:40:36.273Z,9.54
2017-05-04T22:43:05.375Z,8.50
2017-05-04T22:45:34.436Z,9.96
2017-05-04T22:48:02.729Z,8.84
2017-05-04T22:50:31.061Z,9.48
2017-05-04T22:53:00.118Z,9.94
2017-05-04T22:55:28.413Z,9.34
2017-05-04T22:57:57.536Z,8.92
2017-05-04T23:00:27.344Z,10.08
2017-05-04T23:02:55.697Z,9.86
2017-05-04T23:05:24.070Z,8.82
2017-05-04T23:07:52.366Z,9.40
2017-05-04T23:10:20.716Z,8.22
2017-05-04T23:12:49.016Z,8.46
2017-05-04T23:15:17.323Z,8.48
2017-05-04T23:17:45.646Z,8.10
2017-05-04T23:20:13.977Z,8.34
2017-05-04T23:22:42.284Z,8.06
2017-05-04T23:25:10.585Z,8.62
2017-05-04T23:27:38.931Z,9.24
2017-05-04T23:30:07.243Z,8.50
2017-05-04T23:32:35.536Z,9.36
2017-05-04T23:35:03.880Z,8.64
2017-05-04T23:37:32.202Z,10.32
2017-05-04T23:40:01.297Z,9.72
2017-05-04T23:42:30.426Z,11.14
2017-05-04T23:44:58.736Z,10.10
2017-05-04T23:47:27.051Z,9.96
2017-05-04T23:49:56.152Z,9.60
2017-05-04T23:52:25.217Z,10.32
2017-05-04T23:54:53.528Z,9.74
2017-05-04T23:57:22.625Z,9.42
2017-05-04T23:59:51.699Z,10.44
